sensor_id;sensor_type;location;lat;lon;timestamp;P1;durP1;ratioP1;P2;durP2;ratioP2
7253;SDS011;4060;49.186;9.226;2023-04-21T00:00:25;7.50;;;6.80;;
7253;SDS011;4060;49.186;9.226;2023-04-21T00:02:55;7.90;;;7.20;;
7253;SDS011;4060;49.186;9.226;2023-04-21T00:05:25;8.15;;;7.45;;
7253;SDS011;4060;49.186;9.226;2023-04-21T00:07:56;8.15;;;7.45;;
7253;SDS011;4060;49.186;9.226;2023-04-21T00:10:26;7.65;;;7.03;;
7253;SDS011;4060;49.186;9.226;2023-04-21T00:12:55;7.18;;;6.57;;
7253;SDS011;4060;49.186;9.226;2023-04-21T00:15:25;7.75;;;7.05;;
7253;SDS011;4060;49.186;9.226;2023-04-21T00:17:54;7.63;;;6.82;;
7253;SDS011;4060;49.186;9.226;2023-04-21T00:20:24;7.53;;;6.82;;
7253;SDS011;4060;49.186;9.226;2023-04-21T00:22:56;7.82;;;7.13;;
7253;SDS011;4060;49.186;9.226;2023-04-21T00:25:26;7.63;;;7.03;;
7253;SDS011;4060;49.186;9.226;2023-04-21T00:27:55;7.93;;;7.20;;
7253;SDS011;4060;49.186;9.226;2023-04-21T00:30:25;7.65;;;6.93;;
7253;SDS011;4060;49.186;9.226;2023-04-21T00:32:54;8.60;;;7.82;;
7253;SDS011;4060;49.186;9.226;2023-04-21T00:35:23;7.55;;;6.80;;
7253;SDS011;4060;49.186;9.226;2023-04-21T00:37:56;7.85;;;7.20;;
7253;SDS011;4060;49.186;9.226;2023-04-21T00:40:25;8.07;;;7.38;;
7253;SDS011;4060;49.186;9.226;2023-04-21T00:42:55;8.65;;;7.85;;
7253;SDS011;4060;49.186;9.226;2023-04-21T00:45:25;8.00;;;7.30;;
7253;SDS011;4060;49.186;9.226;2023-04-21T00:47:54;8.70;;;7.90;;
7253;SDS011;4060;49.186;9.226;2023-04-21T00:50:24;8.70;;;7.90;;
7253;SDS011;4060;49.186;9.226;2023-04-21T00:52:55;8.85;;;7.97;;
7253;SDS011;4060;49.186;9.226;2023-04-21T00:55:25;8.35;;;7.57;;
7253;SDS011;4060;49.186;9.226;2023-04-21T00:57:56;8.65;;;7.85;;
7253;SDS011;4060;49.186;9.226;2023-04-21T01:00:26;8.45;;;7.68;;
7253;SDS011;4060;49.186;9.226;2023-04-21T01:02:55;8.27;;;7.47;;
7253;SDS011;4060;49.186;9.226;2023-04-21T01:05:25;9.00;;;8.10;;
7253;SDS011;4060;49.186;9.226;2023-04-21T01:07:56;8.18;;;7.47;;
7253;SDS011;4060;49.186;9.226;2023-04-21T01:10:26;8.73;;;7.93;;
7253;SDS011;4060;49.186;9.226;2023-04-21T01:12:55;8.20;;;7.50;;
7253;SDS011;4060;49.186;9.226;2023-04-21T01:15:25;9.48;;;8.57;;
7253;SDS011;4060;49.186;9.226;2023-04-21T01:17:56;9.88;;;8.88;;
7253;SDS011;4060;49.186;9.226;2023-04-21T01:20:26;8.73;;;7.93;;
7253;SDS011;4060;49.186;9.226;2023-04-21T01:22:58;9.05;;;8.18;;
7253;SDS011;4060;49.186;9.226;2023-04-21T01:25:28;8.07;;;7.38;;
7253;SDS011;4060;49.186;9.226;2023-04-21T01:27:58;9.13;;;8.25;;
7253;SDS011;4060;49.186;9.226;2023-04-21T01:30:27;10.23;;;9.20;;
7253;SDS011;4060;49.186;9.226;2023-04-21T01:32:56;8.68;;;7.93;;
7253;SDS011;4060;49.186;9.226;2023-04-21T01:35:26;8.43;;;7.70;;
7253;SDS011;4060;49.186;9.226;2023-04-21T01:37:55;8.70;;;7.88;;
7253;SDS011;4060;49.186;9.226;2023-04-21T01:40:27;8.65;;;7.85;;
7253;SDS011;4060;49.186;9.226;2023-04-21T01:42:56;9.07;;;8.18;;
7253;SDS011;4060;49.186;9.226;2023-04-21T01:45:25;8.60;;;7.80;;
7253;SDS011;4060;49.186;9.226;2023-04-21T01:47:55;9.85;;;9.00;;
7253;SDS011;4060;49.186;9.226;2023-04-21T01:50:24;8.98;;;8.18;;
7253;SDS011;4060;49.186;9.226;2023-04-21T01:52:54;8.98;;;8.13;;
7253;SDS011;4060;49.186;9.226;2023-04-21T01:55:25;8.30;;;7.60;;
7253;SDS011;4060;49.186;9.226;2023-04-21T01:57:54;8.70;;;7.90;;
7253;SDS011;4060;49.186;9.226;2023-04-21T02:00:24;9.13;;;8.23;;
7253;SDS011;4060;49.186;9.226;2023-04-21T02:02:54;8.65;;;7.85;;
7253;SDS011;4060;49.186;9.226;2023-04-21T02:05:24;8.38;;;7.65;;
7253;SDS011;4060;49.186;9.226;2023-04-21T02:07:53;8.50;;;7.70;;
7253;SDS011;4060;49.186;9.226;2023-04-21T02:10:27;8.55;;;7.75;;
7253;SDS011;4060;49.186;9.226;2023-04-21T02:12:56;8.27;;;7.50;;
7253;SDS011;4060;49.186;9.226;2023-04-21T02:15:26;8.95;;;8.15;;
7253;SDS011;4060;49.186;9.226;2023-04-21T02:17:55;8.35;;;7.55;;
7253;SDS011;4060;49.186;9.226;2023-04-21T02:20:25;8.13;;;7.32;;
7253;SDS011;4060;49.186;9.226;2023-04-21T02:22:54;8.48;;;7.78;;
7253;SDS011;4060;49.186;9.226;2023-04-21T02:25:25;8.52;;;7.72;;
7253;SDS011;4060;49.186;9.226;2023-04-21T02:27:55;8.68;;;7.72;;
7253;SDS011;4060;49.186;9.226;2023-04-21T02:30:24;8.00;;;7.28;;
7253;SDS011;4060;49.186;9.226;2023-04-21T02:32:53;9.13;;;8.23;;
7253;SDS011;4060;49.186;9.226;2023-04-21T02:35:23;8.27;;;7.57;;
7253;SDS011;4060;49.186;9.226;2023-04-21T02:37:52;8.25;;;7.53;;
7253;SDS011;4060;49.186;9.226;2023-04-21T02:40:21;8.45;;;7.65;;
7253;SDS011;4060;49.186;9.226;2023-04-21T02:42:53;7.40;;;6.53;;
7253;SDS011;4060;49.186;9.226;2023-04-21T02:45:23;8.07;;;7.35;;
7253;SDS011;4060;49.186;9.226;2023-04-21T02:47:52;8.32;;;7.55;;
7253;SDS011;4060;49.186;9.226;2023-04-21T02:50:22;8.30;;;7.50;;
7253;SDS011;4060;49.186;9.226;2023-04-21T02:52:51;8.07;;;7.32;;
7253;SDS011;4060;49.186;9.226;2023-04-21T02:55:21;8.25;;;7.50;;
7253;SDS011;4060;49.186;9.226;2023-04-21T02:57:50;8.57;;;7.68;;
7253;SDS011;4060;49.186;9.226;2023-04-21T03:00:22;8.35;;;7.57;;
7253;SDS011;4060;49.186;9.226;2023-04-21T03:02:52;8.30;;;7.60;;
7253;SDS011;4060;49.186;9.226;2023-04-21T03:05:21;8.30;;;7.50;;
7253;SDS011;4060;49.186;9.226;2023-04-21T03:07:51;8.20;;;7.40;;
7253;SDS011;4060;49.186;9.226;2023-04-21T03:10:21;7.97;;;7.28;;
7253;SDS011;4060;49.186;9.226;2023-04-21T03:12:50;7.88;;;7.18;;
7253;SDS011;4060;49.186;9.226;2023-04-21T03:15:21;7.65;;;6.95;;
7253;SDS011;4060;49.186;9.226;2023-04-21T03:17:50;8.55;;;7.75;;
7253;SDS011;4060;49.186;9.226;2023-04-21T03:20:19;7.68;;;6.97;;
7253;SDS011;4060;49.186;9.226;2023-04-21T03:22:49;7.60;;;6.90;;
7253;SDS011;4060;49.186;9.226;2023-04-21T03:25:21;8.00;;;7.20;;
7253;SDS011;4060;49.186;9.226;2023-04-21T03:27:54;8.38;;;7.57;;
7253;SDS011;4060;49.186;9.226;2023-04-21T03:30:23;7.43;;;6.72;;
7253;SDS011;4060;49.186;9.226;2023-04-21T03:32:53;8.10;;;7.40;;
7253;SDS011;4060;49.186;9.226;2023-04-21T03:35:22;7.95;;;7.25;;
7253;SDS011;4060;49.186;9.226;2023-04-21T03:37:51;7.10;;;6.50;;
7253;SDS011;4060;49.186;9.226;2023-04-21T03:40:21;8.15;;;7.45;;
7253;SDS011;4060;49.186;9.226;2023-04-21T03:42:50;7.95;;;7.25;;
7253;SDS011;4060;49.186;9.226;2023-04-21T03:45:22;7.60;;;6.90;;
7253;SDS011;4060;49.186;9.226;2023-04-21T03:47:52;8.50;;;7.63;;
7253;SDS011;4060;49.186;9.226;2023-04-21T03:50:22;8.10;;;7.40;;
7253;SDS011;4060;49.186;9.226;2023-04-21T03:52:52;8.15;;;7.47;;
7253;SDS011;4060;49.186;9.226;2023-04-21T03:55:21;8.13;;;7.43;;
7253;SDS011;4060;49.186;9.226;2023-04-21T03:57:51;8.98;;;8.15;;
7253;SDS011;4060;49.186;9.226;2023-04-21T04:00:23;8.73;;;7.93;;
7253;SDS011;4060;49.186;9.226;2023-04-21T04:02:52;9.65;;;8.73;;
7253;SDS011;4060;49.186;9.226;2023-04-21T04:05:22;9.60;;;8.70;;
7253;SDS011;4060;49.186;9.226;2023-04-21T04:07:51;9.30;;;8.50;;
7253;SDS011;4060;49.186;9.226;2023-04-21T04:10:21;10.43;;;9.43;;
7253;SDS011;4060;49.186;9.226;2023-04-21T04:12:50;9.98;;;8.98;;
7253;SDS011;4060;49.186;9.226;2023-04-21T04:15:22;10.45;;;9.45;;
7253;SDS011;4060;49.186;9.226;2023-04-21T04:17:52;10.68;;;9.68;;
7253;SDS011;4060;49.186;9.226;2023-04-21T04:20:21;11.38;;;10.27;;
7253;SDS011;4060;49.186;9.226;2023-04-21T04:22:51;10.85;;;9.85;;
7253;SDS011;4060;49.186;9.226;2023-04-21T04:25:21;10.57;;;9.57;;
7253;SDS011;4060;49.186;9.226;2023-04-21T04:27:51;10.68;;;9.68;;
7253;SDS011;4060;49.186;9.226;2023-04-21T04:30:23;11.00;;;10.00;;
7253;SDS011;4060;49.186;9.226;2023-04-21T04:32:53;10.50;;;9.40;;
7253;SDS011;4060;49.186;9.226;2023-04-21T04:35:23;10.75;;;9.75;;
7253;SDS011;4060;49.186;9.226;2023-04-21T04:37:53;10.88;;;9.77;;
7253;SDS011;4060;49.186;9.226;2023-04-21T04:40:23;10.65;;;9.65;;
7253;SDS011;4060;49.186;9.226;2023-04-21T04:42:52;10.68;;;9.77;;
7253;SDS011;4060;49.186;9.226;2023-04-21T04:45:24;10.40;;;9.50;;
7253;SDS011;4060;49.186;9.226;2023-04-21T04:47:57;10.57;;;9.57;;
7253;SDS011;4060;49.186;9.226;2023-04-21T04:50:26;9.90;;;9.00;;
7253;SDS011;4060;49.186;9.226;2023-04-21T04:52:56;10.43;;;9.43;;
7253;SDS011;4060;49.186;9.226;2023-04-21T04:55:25;10.48;;;9.48;;
7253;SDS011;4060;49.186;9.226;2023-04-21T04:57:55;10.07;;;9.07;;
7253;SDS011;4060;49.186;9.226;2023-04-21T05:00:26;10.27;;;9.35;;
7253;SDS011;4060;49.186;9.226;2023-04-21T05:02:56;10.40;;;9.50;;
7253;SDS011;4060;49.186;9.226;2023-04-21T05:05:26;10.25;;;9.35;;
7253;SDS011;4060;49.186;9.226;2023-04-21T05:07:55;10.65;;;9.65;;
7253;SDS011;4060;49.186;9.226;2023-04-21T05:10:24;9.82;;;8.93;;
7253;SDS011;4060;49.186;9.226;2023-04-21T05:12:53;10.65;;;9.65;;
7253;SDS011;4060;49.186;9.226;2023-04-21T05:15:25;10.50;;;9.50;;
7253;SDS011;4060;49.186;9.226;2023-04-21T05:17:54;10.80;;;9.80;;
7253;SDS011;4060;49.186;9.226;2023-04-21T05:20:24;10.30;;;9.40;;
7253;SDS011;4060;49.186;9.226;2023-04-21T05:22:53;11.32;;;10.23;;
7253;SDS011;4060;49.186;9.226;2023-04-21T05:25:22;11.40;;;10.30;;
7253;SDS011;4060;49.186;9.226;2023-04-21T05:27:52;10.68;;;9.68;;
7253;SDS011;4060;49.186;9.226;2023-04-21T05:30:21;10.75;;;9.75;;
7253;SDS011;4060;49.186;9.226;2023-04-21T05:32:52;10.70;;;9.63;;
7253;SDS011;4060;49.186;9.226;2023-04-21T05:35:22;10.38;;;9.38;;
7253;SDS011;4060;49.186;9.226;2023-04-21T05:37:53;9.90;;;9.00;;
7253;SDS011;4060;49.186;9.226;2023-04-21T05:40:23;10.85;;;9.85;;
7253;SDS011;4060;49.186;9.226;2023-04-21T05:42:52;11.00;;;9.90;;
7253;SDS011;4060;49.186;9.226;2023-04-21T05:45:22;10.73;;;9.65;;
7253;SDS011;4060;49.186;9.226;2023-04-21T05:47:54;10.38;;;9.40;;
7253;SDS011;4060;49.186;9.226;2023-04-21T05:50:22;11.27;;;10.20;;
7253;SDS011;4060;49.186;9.226;2023-04-21T05:52:59;11.98;;;10.75;;
7253;SDS011;4060;49.186;9.226;2023-04-21T05:55:29;11.23;;;10.10;;
7253;SDS011;4060;49.186;9.226;2023-04-21T05:58:00;11.25;;;10.15;;
7253;SDS011;4060;49.186;9.226;2023-04-21T06:00:30;11.48;;;10.38;;
7253;SDS011;4060;49.186;9.226;2023-04-21T06:03:01;11.20;;;9.88;;
7253;SDS011;4060;49.186;9.226;2023-04-21T06:05:31;11.48;;;10.27;;
7253;SDS011;4060;49.186;9.226;2023-04-21T06:08:01;11.27;;;10.23;;
7253;SDS011;4060;49.186;9.226;2023-04-21T06:10:31;10.73;;;9.73;;
7253;SDS011;4060;49.186;9.226;2023-04-21T06:13:00;11.00;;;9.90;;
7253;SDS011;4060;49.186;9.226;2023-04-21T06:15:29;11.65;;;10.55;;
7253;SDS011;4060;49.186;9.226;2023-04-21T06:18:01;9.90;;;8.98;;
7253;SDS011;4060;49.186;9.226;2023-04-21T06:20:30;11.32;;;10.20;;
7253;SDS011;4060;49.186;9.226;2023-04-21T06:23:00;11.02;;;9.93;;
7253;SDS011;4060;49.186;9.226;2023-04-21T06:25:29;10.35;;;9.35;;
7253;SDS011;4060;49.186;9.226;2023-04-21T06:27:59;11.65;;;10.52;;
7253;SDS011;4060;49.186;9.226;2023-04-21T06:30:28;11.95;;;10.70;;
7253;SDS011;4060;49.186;9.226;2023-04-21T06:32:58;10.90;;;9.90;;
7253;SDS011;4060;49.186;9.226;2023-04-21T06:35:31;10.80;;;9.80;;
7253;SDS011;4060;49.186;9.226;2023-04-21T06:38:00;10.55;;;9.55;;
7253;SDS011;4060;49.186;9.226;2023-04-21T06:40:30;11.80;;;10.57;;
7253;SDS011;4060;49.186;9.226;2023-04-21T06:42:59;11.63;;;10.52;;
7253;SDS011;4060;49.186;9.226;2023-04-21T06:45:34;10.73;;;9.73;;
7253;SDS011;4060;49.186;9.226;2023-04-21T06:48:03;11.27;;;10.18;;
7253;SDS011;4060;49.186;9.226;2023-04-21T06:50:35;10.85;;;9.82;;
7253;SDS011;4060;49.186;9.226;2023-04-21T06:53:04;11.93;;;10.73;;
7253;SDS011;4060;49.186;9.226;2023-04-21T06:55:34;13.77;;;12.43;;
7253;SDS011;4060;49.186;9.226;2023-04-21T06:58:04;13.02;;;11.63;;
7253;SDS011;4060;49.186;9.226;2023-04-21T07:00:33;12.10;;;11.00;;
7253;SDS011;4060;49.186;9.226;2023-04-21T07:03:03;14.05;;;12.60;;
7253;SDS011;4060;49.186;9.226;2023-04-21T07:05:33;12.52;;;11.32;;
7253;SDS011;4060;49.186;9.226;2023-04-21T07:08:04;12.80;;;11.50;;
7253;SDS011;4060;49.186;9.226;2023-04-21T07:10:33;12.00;;;10.85;;
7253;SDS011;4060;49.186;9.226;2023-04-21T07:13:02;12.27;;;11.18;;
7253;SDS011;4060;49.186;9.226;2023-04-21T07:15:32;12.75;;;11.20;;
7253;SDS011;4060;49.186;9.226;2023-04-21T07:18:01;11.93;;;10.82;;
7253;SDS011;4060;49.186;9.226;2023-04-21T07:20:31;14.27;;;12.63;;
7253;SDS011;4060;49.186;9.226;2023-04-21T07:23:02;13.65;;;12.25;;
7253;SDS011;4060;49.186;9.226;2023-04-21T07:25:31;13.07;;;11.68;;
7253;SDS011;4060;49.186;9.226;2023-04-21T07:28:00;12.90;;;11.60;;
7253;SDS011;4060;49.186;9.226;2023-04-21T07:30:30;11.82;;;10.60;;
7253;SDS011;4060;49.186;9.226;2023-04-21T07:32:59;11.65;;;10.45;;
7253;SDS011;4060;49.186;9.226;2023-04-21T07:35:28;11.18;;;10.10;;
7253;SDS011;4060;49.186;9.226;2023-04-21T07:37:58;10.90;;;9.90;;
7253;SDS011;4060;49.186;9.226;2023-04-21T07:40:31;10.85;;;9.80;;
7253;SDS011;4060;49.186;9.226;2023-04-21T07:43:02;11.00;;;10.00;;
7253;SDS011;4060;49.186;9.226;2023-04-21T07:45:32;10.70;;;9.60;;
7253;SDS011;4060;49.186;9.226;2023-04-21T07:48:01;10.43;;;9.35;;
7253;SDS011;4060;49.186;9.226;2023-04-21T07:50:31;10.20;;;9.30;;
7253;SDS011;4060;49.186;9.226;2023-04-21T07:53:04;10.02;;;9.07;;
7253;SDS011;4060;49.186;9.226;2023-04-21T07:55:33;10.60;;;9.60;;
7253;SDS011;4060;49.186;9.226;2023-04-21T07:58:03;10.55;;;9.48;;
7253;SDS011;4060;49.186;9.226;2023-04-21T08:00:33;10.10;;;9.13;;
7253;SDS011;4060;49.186;9.226;2023-04-21T08:03:02;10.45;;;9.30;;
7253;SDS011;4060;49.186;9.226;2023-04-21T08:05:30;9.85;;;8.95;;
7253;SDS011;4060;49.186;9.226;2023-04-21T08:07:59;10.00;;;9.10;;
7253;SDS011;4060;49.186;9.226;2023-04-21T08:10:30;10.23;;;9.18;;
7253;SDS011;4060;49.186;9.226;2023-04-21T08:12:59;9.55;;;8.65;;
7253;SDS011;4060;49.186;9.226;2023-04-21T08:15:31;10.02;;;9.07;;
7253;SDS011;4060;49.186;9.226;2023-04-21T08:18:01;10.60;;;9.50;;
7253;SDS011;4060;49.186;9.226;2023-04-21T08:20:30;9.80;;;8.90;;
7253;SDS011;4060;49.186;9.226;2023-04-21T08:22:59;10.00;;;9.10;;
7253;SDS011;4060;49.186;9.226;2023-04-21T08:25:30;9.90;;;9.00;;
7253;SDS011;4060;49.186;9.226;2023-04-21T08:27:59;10.23;;;9.23;;
7253;SDS011;4060;49.186;9.226;2023-04-21T08:30:28;9.15;;;8.35;;
7253;SDS011;4060;49.186;9.226;2023-04-21T08:32:58;9.85;;;8.85;;
7253;SDS011;4060;49.186;9.226;2023-04-21T08:35:27;9.77;;;8.88;;
7253;SDS011;4060;49.186;9.226;2023-04-21T08:37:57;10.30;;;9.40;;
7253;SDS011;4060;49.186;9.226;2023-04-21T08:40:26;10.90;;;9.80;;
7253;SDS011;4060;49.186;9.226;2023-04-21T08:43:04;10.68;;;9.57;;
7253;SDS011;4060;49.186;9.226;2023-04-21T08:45:34;10.70;;;9.70;;
7253;SDS011;4060;49.186;9.226;2023-04-21T08:48:03;11.05;;;9.95;;
7253;SDS011;4060;49.186;9.226;2023-04-21T08:50:34;10.82;;;9.73;;
7253;SDS011;4060;49.186;9.226;2023-04-21T08:53:04;10.90;;;9.88;;
7253;SDS011;4060;49.186;9.226;2023-04-21T08:55:36;11.93;;;10.25;;
7253;SDS011;4060;49.186;9.226;2023-04-21T08:58:06;11.20;;;10.13;;
7253;SDS011;4060;49.186;9.226;2023-04-21T09:00:36;11.18;;;10.07;;
7253;SDS011;4060;49.186;9.226;2023-04-21T09:03:06;11.82;;;10.65;;
7253;SDS011;4060;49.186;9.226;2023-04-21T09:05:35;11.63;;;10.48;;
7253;SDS011;4060;49.186;9.226;2023-04-21T09:08:08;11.48;;;10.38;;
7253;SDS011;4060;49.186;9.226;2023-04-21T09:10:47;11.90;;;10.75;;
7253;SDS011;4060;49.186;9.226;2023-04-21T09:13:18;11.68;;;10.55;;
7253;SDS011;4060;49.186;9.226;2023-04-21T09:15:48;11.88;;;10.63;;
7253;SDS011;4060;49.186;9.226;2023-04-21T09:18:19;12.13;;;10.93;;
7253;SDS011;4060;49.186;9.226;2023-04-21T09:20:51;12.38;;;11.18;;
7253;SDS011;4060;49.186;9.226;2023-04-21T09:23:41;13.20;;;11.65;;
7253;SDS011;4060;49.186;9.226;2023-04-21T09:26:12;12.80;;;11.27;;
7253;SDS011;4060;49.186;9.226;2023-04-21T09:28:43;12.82;;;11.63;;
7253;SDS011;4060;49.186;9.226;2023-04-21T09:31:14;13.65;;;12.00;;
7253;SDS011;4060;49.186;9.226;2023-04-21T09:33:45;12.93;;;11.63;;
7253;SDS011;4060;49.186;9.226;2023-04-21T09:36:19;14.20;;;12.80;;
7253;SDS011;4060;49.186;9.226;2023-04-21T09:38:50;13.75;;;12.35;;
7253;SDS011;4060;49.186;9.226;2023-04-21T09:41:29;13.82;;;12.23;;
7253;SDS011;4060;49.186;9.226;2023-04-21T09:43:59;14.02;;;12.18;;
7253;SDS011;4060;49.186;9.226;2023-04-21T09:46:31;13.70;;;11.98;;
7253;SDS011;4060;49.186;9.226;2023-04-21T09:49:02;14.25;;;12.75;;
7253;SDS011;4060;49.186;9.226;2023-04-21T09:51:32;14.43;;;12.93;;
7253;SDS011;4060;49.186;9.226;2023-04-21T09:54:03;14.70;;;13.25;;
7253;SDS011;4060;49.186;9.226;2023-04-21T09:56:43;15.05;;;13.50;;
7253;SDS011;4060;49.186;9.226;2023-04-21T09:59:19;14.52;;;12.98;;
7253;SDS011;4060;49.186;9.226;2023-04-21T10:01:52;15.43;;;13.88;;
7253;SDS011;4060;49.186;9.226;2023-04-21T10:04:25;15.35;;;13.75;;
7253;SDS011;4060;49.186;9.226;2023-04-21T10:06:56;15.68;;;14.07;;
7253;SDS011;4060;49.186;9.226;2023-04-21T10:09:29;15.23;;;13.63;;
7253;SDS011;4060;49.186;9.226;2023-04-21T10:12:02;15.77;;;14.10;;
7253;SDS011;4060;49.186;9.226;2023-04-21T10:14:32;15.30;;;13.70;;
7253;SDS011;4060;49.186;9.226;2023-04-21T10:17:03;16.35;;;14.18;;
7253;SDS011;4060;49.186;9.226;2023-04-21T10:19:33;16.27;;;14.52;;
7253;SDS011;4060;49.186;9.226;2023-04-21T10:22:05;16.08;;;14.48;;
7253;SDS011;4060;49.186;9.226;2023-04-21T10:24:38;16.48;;;14.20;;
7253;SDS011;4060;49.186;9.226;2023-04-21T10:27:12;16.25;;;14.50;;
7253;SDS011;4060;49.186;9.226;2023-04-21T10:30:00;15.98;;;14.07;;
7253;SDS011;4060;49.186;9.226;2023-04-21T10:32:45;14.18;;;12.77;;
7253;SDS011;4060;49.186;9.226;2023-04-21T10:35:16;16.30;;;14.15;;
7253;SDS011;4060;49.186;9.226;2023-04-21T10:37:50;16.15;;;14.38;;
7253;SDS011;4060;49.186;9.226;2023-04-21T10:40:33;16.83;;;14.98;;
7253;SDS011;4060;49.186;9.226;2023-04-21T10:43:11;17.52;;;15.48;;
7253;SDS011;4060;49.186;9.226;2023-04-21T10:49:05;17.33;;;15.48;;
7253;SDS011;4060;49.186;9.226;2023-04-21T10:54:35;17.42;;;15.52;;
7253;SDS011;4060;49.186;9.226;2023-04-21T10:57:11;18.48;;;16.48;;
7253;SDS011;4060;49.186;9.226;2023-04-21T10:59:43;17.17;;;15.38;;
7253;SDS011;4060;49.186;9.226;2023-04-21T11:02:13;18.88;;;16.98;;
7253;SDS011;4060;49.186;9.226;2023-04-21T11:04:44;18.08;;;16.17;;
7253;SDS011;4060;49.186;9.226;2023-04-21T11:07:21;17.23;;;15.50;;
7253;SDS011;4060;49.186;9.226;2023-04-21T11:09:56;18.88;;;16.80;;
7253;SDS011;4060;49.186;9.226;2023-04-21T11:12:27;17.65;;;15.85;;
7253;SDS011;4060;49.186;9.226;2023-04-21T11:15:01;18.92;;;17.05;;
7253;SDS011;4060;49.186;9.226;2023-04-21T11:17:32;18.02;;;16.13;;
7253;SDS011;4060;49.186;9.226;2023-04-21T11:20:04;19.08;;;16.95;;
7253;SDS011;4060;49.186;9.226;2023-04-21T11:22:36;17.92;;;15.98;;
7253;SDS011;4060;49.186;9.226;2023-04-21T11:25:16;17.50;;;15.70;;
7253;SDS011;4060;49.186;9.226;2023-04-21T11:27:53;18.88;;;16.98;;
7253;SDS011;4060;49.186;9.226;2023-04-21T11:30:33;20.23;;;16.40;;
7253;SDS011;4060;49.186;9.226;2023-04-21T11:33:02;17.45;;;15.63;;
7253;SDS011;4060;49.186;9.226;2023-04-21T11:35:32;17.30;;;15.10;;
7253;SDS011;4060;49.186;9.226;2023-04-21T11:38:03;17.45;;;15.55;;
7253;SDS011;4060;49.186;9.226;2023-04-21T11:40:44;17.42;;;15.63;;
7253;SDS011;4060;49.186;9.226;2023-04-21T11:43:14;17.00;;;15.32;;
7253;SDS011;4060;49.186;9.226;2023-04-21T11:45:49;15.95;;;14.45;;
7253;SDS011;4060;49.186;9.226;2023-04-21T11:48:18;15.60;;;14.05;;
7253;SDS011;4060;49.186;9.226;2023-04-21T11:50:48;15.23;;;13.63;;
7253;SDS011;4060;49.186;9.226;2023-04-21T11:53:18;14.55;;;13.15;;
7253;SDS011;4060;49.186;9.226;2023-04-21T11:55:48;14.90;;;13.50;;
7253;SDS011;4060;49.186;9.226;2023-04-21T11:58:19;14.55;;;13.15;;
7253;SDS011;4060;49.186;9.226;2023-04-21T12:00:52;14.60;;;13.10;;
7253;SDS011;4060;49.186;9.226;2023-04-21T12:03:22;13.90;;;12.52;;
7253;SDS011;4060;49.186;9.226;2023-04-21T12:05:55;12.98;;;11.68;;
7253;SDS011;4060;49.186;9.226;2023-04-21T12:08:27;14.95;;;13.45;;
7253;SDS011;4060;49.186;9.226;2023-04-21T12:10:58;14.70;;;13.20;;
7253;SDS011;4060;49.186;9.226;2023-04-21T12:13:29;13.25;;;11.95;;
7253;SDS011;4060;49.186;9.226;2023-04-21T12:16:03;14.38;;;12.98;;
7253;SDS011;4060;49.186;9.226;2023-04-21T12:18:34;13.80;;;12.38;;
7253;SDS011;4060;49.186;9.226;2023-04-21T12:21:04;14.20;;;12.90;;
7253;SDS011;4060;49.186;9.226;2023-04-21T12:23:33;13.00;;;11.80;;
7253;SDS011;4060;49.186;9.226;2023-04-21T12:26:04;13.32;;;11.95;;
7253;SDS011;4060;49.186;9.226;2023-04-21T12:28:33;14.00;;;12.63;;
7253;SDS011;4060;49.186;9.226;2023-04-21T12:31:04;14.25;;;12.85;;
7253;SDS011;4060;49.186;9.226;2023-04-21T12:33:34;14.57;;;13.18;;
7253;SDS011;4060;49.186;9.226;2023-04-21T12:36:03;14.60;;;13.13;;
7253;SDS011;4060;49.186;9.226;2023-04-21T12:38:32;15.38;;;13.88;;
7253;SDS011;4060;49.186;9.226;2023-04-21T12:41:01;15.05;;;13.55;;
7253;SDS011;4060;49.186;9.226;2023-04-21T12:43:31;14.73;;;13.30;;
7253;SDS011;4060;49.186;9.226;2023-04-21T12:46:00;15.63;;;14.13;;
7253;SDS011;4060;49.186;9.226;2023-04-21T12:48:31;16.42;;;14.80;;
7253;SDS011;4060;49.186;9.226;2023-04-21T12:51:01;15.10;;;13.70;;
7253;SDS011;4060;49.186;9.226;2023-04-21T12:53:30;15.43;;;13.85;;
7253;SDS011;4060;49.186;9.226;2023-04-21T12:56:01;16.10;;;14.45;;
7253;SDS011;4060;49.186;9.226;2023-04-21T12:58:31;16.55;;;14.90;;
7253;SDS011;4060;49.186;9.226;2023-04-21T13:01:01;17.15;;;15.45;;
7253;SDS011;4060;49.186;9.226;2023-04-21T13:03:32;16.48;;;14.88;;
7253;SDS011;4060;49.186;9.226;2023-04-21T13:06:01;15.38;;;13.90;;
7253;SDS011;4060;49.186;9.226;2023-04-21T13:08:31;16.58;;;14.95;;
7253;SDS011;4060;49.186;9.226;2023-04-21T13:11:01;16.17;;;14.63;;
7253;SDS011;4060;49.186;9.226;2023-04-21T13:13:30;17.02;;;15.32;;
7253;SDS011;4060;49.186;9.226;2023-04-21T13:15:59;17.10;;;15.30;;
7253;SDS011;4060;49.186;9.226;2023-04-21T13:18:29;17.13;;;15.43;;
7253;SDS011;4060;49.186;9.226;2023-04-21T13:21:01;17.52;;;15.75;;
7253;SDS011;4060;49.186;9.226;2023-04-21T13:23:31;16.73;;;15.02;;
7253;SDS011;4060;49.186;9.226;2023-04-21T13:26:00;16.70;;;15.00;;
7253;SDS011;4060;49.186;9.226;2023-04-21T13:28:30;16.17;;;14.57;;
7253;SDS011;4060;49.186;9.226;2023-04-21T13:30:59;15.88;;;14.25;;
7253;SDS011;4060;49.186;9.226;2023-04-21T13:33:28;15.95;;;14.35;;
7253;SDS011;4060;49.186;9.226;2023-04-21T13:36:02;16.27;;;14.57;;
7253;SDS011;4060;49.186;9.226;2023-04-21T13:38:32;16.10;;;14.55;;
7253;SDS011;4060;49.186;9.226;2023-04-21T13:41:01;16.05;;;14.52;;
7253;SDS011;4060;49.186;9.226;2023-04-21T13:43:31;16.63;;;14.98;;
7253;SDS011;4060;49.186;9.226;2023-04-21T13:46:01;16.02;;;14.43;;
7253;SDS011;4060;49.186;9.226;2023-04-21T13:48:30;17.52;;;15.77;;
7253;SDS011;4060;49.186;9.226;2023-04-21T13:51:00;15.85;;;14.35;;
7253;SDS011;4060;49.186;9.226;2023-04-21T13:53:31;16.58;;;14.90;;
7253;SDS011;4060;49.186;9.226;2023-04-21T13:56:01;16.00;;;14.50;;
7253;SDS011;4060;49.186;9.226;2023-04-21T13:58:30;15.95;;;14.40;;
7253;SDS011;4060;49.186;9.226;2023-04-21T14:01:00;17.10;;;15.50;;
7253;SDS011;4060;49.186;9.226;2023-04-21T14:03:30;16.02;;;14.43;;
7253;SDS011;4060;49.186;9.226;2023-04-21T14:06:00;14.38;;;13.07;;
7253;SDS011;4060;49.186;9.226;2023-04-21T14:08:31;14.07;;;12.77;;
7253;SDS011;4060;49.186;9.226;2023-04-21T14:11:00;13.55;;;12.35;;
7253;SDS011;4060;49.186;9.226;2023-04-21T14:13:29;14.98;;;13.57;;
7253;SDS011;4060;49.186;9.226;2023-04-21T14:15:59;14.27;;;12.88;;
7253;SDS011;4060;49.186;9.226;2023-04-21T14:18:28;13.30;;;12.00;;
7253;SDS011;4060;49.186;9.226;2023-04-21T14:20:58;13.43;;;12.13;;
7253;SDS011;4060;49.186;9.226;2023-04-21T14:23:29;13.45;;;12.13;;
7253;SDS011;4060;49.186;9.226;2023-04-21T14:25:59;12.32;;;11.23;;
7253;SDS011;4060;49.186;9.226;2023-04-21T14:28:28;12.88;;;11.68;;
7253;SDS011;4060;49.186;9.226;2023-04-21T14:30:58;11.00;;;9.98;;
7253;SDS011;4060;49.186;9.226;2023-04-21T14:33:27;12.35;;;11.20;;
7253;SDS011;4060;49.186;9.226;2023-04-21T14:35:57;12.77;;;11.48;;
7253;SDS011;4060;49.186;9.226;2023-04-21T14:38:26;12.32;;;11.23;;
7253;SDS011;4060;49.186;9.226;2023-04-21T14:40:57;12.40;;;11.18;;
7253;SDS011;4060;49.186;9.226;2023-04-21T14:43:27;13.02;;;11.73;;
7253;SDS011;4060;49.186;9.226;2023-04-21T14:45:57;11.55;;;10.45;;
7253;SDS011;4060;49.186;9.226;2023-04-21T14:48:26;12.50;;;11.25;;
7253;SDS011;4060;49.186;9.226;2023-04-21T14:50:56;12.07;;;10.60;;
7253;SDS011;4060;49.186;9.226;2023-04-21T14:53:26;11.32;;;10.27;;
7253;SDS011;4060;49.186;9.226;2023-04-21T14:55:57;11.40;;;10.30;;
7253;SDS011;4060;49.186;9.226;2023-04-21T14:58:27;10.15;;;9.25;;
7253;SDS011;4060;49.186;9.226;2023-04-21T15:00:56;10.68;;;9.75;;
7253;SDS011;4060;49.186;9.226;2023-04-21T15:03:26;10.20;;;9.25;;
7253;SDS011;4060;49.186;9.226;2023-04-21T15:05:55;10.85;;;9.85;;
7253;SDS011;4060;49.186;9.226;2023-04-21T15:08:25;10.32;;;9.40;;
7253;SDS011;4060;49.186;9.226;2023-04-21T15:10:54;10.00;;;9.15;;
7253;SDS011;4060;49.186;9.226;2023-04-21T15:13:26;10.07;;;9.18;;
7253;SDS011;4060;49.186;9.226;2023-04-21T15:15:56;9.55;;;8.75;;
7253;SDS011;4060;49.186;9.226;2023-04-21T15:18:25;10.02;;;9.13;;
7253;SDS011;4060;49.186;9.226;2023-04-21T15:20:56;8.32;;;7.63;;
7253;SDS011;4060;49.186;9.226;2023-04-21T15:23:27;9.02;;;8.23;;
7253;SDS011;4060;49.186;9.226;2023-04-21T15:25:58;7.75;;;7.10;;